Time;durP1;ratioP1;P1;durP2;ratioP2;P2;SDS_P1;SDS_P2;PMS_P1;PMS_P2;Temp;Humidity;BMP_temperature;BMP_pressure;BME280_temperature;BME280_humidity;BME280_pressure;Samples;Min_cycle;Max_cycle;Signal;HPM_P1;HPM_P2
2021/10/04 00:00:12;;;;;;;9.82;6.25;;;;;;;15.32;51.16;100744.91;5057050;28;20033;-61
2021/10/04 00:02:38;;;;;;;8.50;5.88;;;;;;;15.28;51.36;100747.00;5057136;28;20055;-61
2021/10/04 00:05:04;;;;;;;7.93;5.65;;;;;;;15.24;51.29;100743.41;5056551;28;20403;-61
2021/10/04 00:07:29;;;;;;;10.65;5.55;;;;;;;15.21;51.16;100740.63;5039176;28;20040;-61
2021/10/04 00:09:55;;;;;;;16.02;6.20;;;;;;;15.19;51.64;100751.59;5056655;28;20033;-61
2021/10/04 00:12:20;;;;;;;11.27;6.20;;;;;;;15.22;51.19;100747.91;5056814;28;20031;-61
2021/10/04 00:14:45;;;;;;;14.10;6.60;;;;;;;15.17;51.20;100751.22;5056288;28;20108;-61
2021/10/04 00:17:11;;;;;;;13.88;6.47;;;;;;;15.13;51.27;100746.41;5054855;28;20021;-61
2021/10/04 00:19:36;;;;;;;14.27;6.28;;;;;;;15.04;52.31;100740.44;5056491;28;20040;-61
2021/10/04 00:22:03;;;;;;;18.30;6.78;;;;;;;14.99;51.68;100735.25;5056489;28;20071;-61
2021/10/04 00:24:28;;;;;;;10.85;5.93;;;;;;;14.94;52.28;100726.44;5056576;28;20062;-61
2021/10/04 00:26:54;;;;;;;10.07;6.05;;;;;;;14.88;52.25;100728.16;5056462;28;20112;-61
2021/10/04 00:29:19;;;;;;;12.02;6.18;;;;;;;14.86;52.21;100731.41;5056471;28;20049;-61
2021/10/04 00:31:46;;;;;;;16.27;6.65;;;;;;;14.78;52.46;100730.66;5056529;28;20028;-61
2021/10/04 00:34:11;;;;;;;10.52;5.97;;;;;;;14.77;52.67;100734.72;5055766;28;20452;-61
2021/10/04 00:36:37;;;;;;;14.25;6.50;;;;;;;14.79;52.71;100720.16;5056401;28;20112;-61
2021/10/04 00:39:03;;;;;;;11.20;6.15;;;;;;;14.76;52.60;100723.84;5055836;28;20078;-61
2021/10/04 00:41:28;;;;;;;13.98;6.90;;;;;;;14.74;53.14;100720.63;5056148;28;20050;-61
2021/10/04 00:43:55;;;;;;;14.40;6.40;;;;;;;14.72;52.94;100720.25;5056551;28;20025;-60
2021/10/04 00:46:20;;;;;;;16.75;6.88;;;;;;;14.66;53.09;100717.09;5055629;28;20392;-60
2021/10/04 00:48:47;;;;;;;12.40;6.78;;;;;;;14.64;53.04;100713.09;5043536;28;20098;-61
2021/10/04 00:51:12;;;;;;;7.90;6.50;;;;;;;14.61;52.77;100713.94;5075470;28;20020;-60
2021/10/04 00:53:38;;;;;;;10.63;5.88;;;;;;;14.56;53.01;100711.56;5075940;28;20132;-61
2021/10/04 00:56:04;;;;;;;14.88;6.25;;;;;;;14.55;52.97;100710.78;5075773;28;20036;-60
2021/10/04 00:58:29;;;;;;;10.52;7.38;;;;;;;14.46;53.40;100708.44;5076235;28;20024;-61
2021/10/04 01:00:55;;;;;;;16.67;6.85;;;;;;;14.45;53.29;100712.47;5075848;28;20118;-61
2021/10/04 01:03:20;;;;;;;15.43;6.60;;;;;;;14.41;53.23;100708.06;5075453;28;20021;-61
2021/10/04 01:05:46;;;;;;;14.13;7.53;;;;;;;14.38;53.42;100700.44;5075926;28;20126;-61
2021/10/04 01:08:11;;;;;;;10.50;6.78;;;;;;;14.36;53.66;100703.69;5075548;28;20415;-59
2021/10/04 01:10:36;;;;;;;15.90;7.20;;;;;;;14.35;54.22;100702.06;5075770;28;20073;-61
2021/10/04 01:13:02;;;;;;;15.07;6.38;;;;;;;14.30;54.01;100704.56;5057841;28;20021;-61
2021/10/04 01:15:27;;;;;;;14.15;6.38;;;;;;;14.30;54.39;100702.53;5075676;28;20024;-61
2021/10/04 01:17:53;;;;;;;10.93;6.90;;;;;;;14.26;53.80;100701.78;5075417;28;20032;-61
2021/10/04 01:20:21;;;;;;;11.38;7.00;;;;;;;14.28;54.38;100701.34;5075276;28;20016;-61
2021/10/04 01:22:47;;;;;;;14.20;7.18;;;;;;;14.25;54.27;100702.19;5075718;28;20419;-62
2021/10/04 01:25:14;;;;;;;13.95;6.88;;;;;;;14.24;54.04;100707.03;5075003;28;20029;-61
2021/10/04 01:27:40;;;;;;;10.45;6.70;;;;;;;14.20;54.11;100700.59;5075585;28;20024;-60
2021/10/04 01:30:07;;;;;;;10.38;7.05;;;;;;;14.13;54.38;100695.84;5075300;28;20320;-60
2021/10/04 01:32:32;;;;;;;11.48;6.50;;;;;;;14.12;54.81;100701.91;5075217;28;20312;-60
2021/10/04 01:34:58;;;;;;;14.80;7.03;;;;;;;14.11;53.99;100698.28;5075586;28;20070;-60
2021/10/04 01:37:24;;;;;;;11.70;6.40;;;;;;;14.04;54.11;100697.56;5075137;28;20457;-61
2021/10/04 01:39:50;;;;;;;12.25;6.90;;;;;;;13.99;54.75;100698.03;5075171;28;20434;-61
2021/10/04 01:42:15;;;;;;;16.20;7.28;;;;;;;13.97;54.80;100698.44;5074988;28;20025;-60
2021/10/04 01:44:41;;;;;;;11.82;6.90;;;;;;;13.99;54.74;100696.00;5075444;28;20084;-61
2021/10/04 01:47:06;;;;;;;12.88;7.13;;;;;;;14.02;54.77;100697.19;5074858;28;20021;-60
2021/10/04 01:49:32;;;;;;;16.45;7.35;;;;;;;14.02;54.51;100700.00;5063562;28;20497;-61
2021/10/04 01:51:57;;;;;;;12.05;7.00;;;;;;;14.01;55.26;100689.94;5055235;28;20025;-61
2021/10/04 01:54:23;;;;;;;11.30;6.70;;;;;;;13.96;54.91;100693.19;5055035;28;20130;-60
2021/10/04 01:56:48;;;;;;;10.38;6.45;;;;;;;13.97;54.09;100700.44;5055021;28;20029;-61
2021/10/04 01:59:13;;;;;;;13.55;6.85;;;;;;;13.92;55.11;100705.31;5054952;28;20075;-61
2021/10/04 02:01:39;;;;;;;9.35;6.28;;;;;;;13.90;55.06;100706.97;5055085;28;20061;-61
2021/10/04 02:04:04;;;;;;;10.68;6.90;;;;;;;13.88;55.46;100712.25;5055062;28;20021;-61
2021/10/04 02:06:29;;;;;;;12.00;6.70;;;;;;;13.90;55.43;100719.06;5054747;28;20035;-60
2021/10/04 02:08:55;;;;;;;12.95;6.82;;;;;;;13.91;55.35;100726.31;5059127;28;20112;-61
2021/10/04 02:11:20;;;;;;;11.25;7.10;;;;;;;13.93;55.15;100720.25;5058930;28;20075;-61
2021/10/04 02:13:46;;;;;;;14.88;7.18;;;;;;;13.94;55.17;100721.88;5058986;28;20052;-61
2021/10/04 02:16:11;;;;;;;19.17;12.15;;;;;;;13.95;54.77;100717.00;5058474;28;20094;-62
2021/10/04 02:18:36;;;;;;;21.95;12.13;;;;;;;13.90;54.68;100721.91;5058991;28;20020;-62
2021/10/04 02:21:02;;;;;;;20.20;9.20;;;;;;;13.85;55.11;100725.19;5058825;28;20040;-62
2021/10/04 02:23:27;;;;;;;11.52;6.95;;;;;;;13.84;54.84;100725.59;5058553;28;20060;-62
2021/10/04 02:25:53;;;;;;;18.50;7.70;;;;;;;13.84;54.99;100728.44;5058930;28;20369;-62
2021/10/04 02:28:19;;;;;;;9.32;6.63;;;;;;;13.81;55.31;100730.06;5058502;28;20029;-62
2021/10/04 02:30:46;;;;;;;12.02;6.75;;;;;;;13.79;55.15;100731.69;5058331;28;20104;-62
2021/10/04 02:33:11;;;;;;;12.45;7.25;;;;;;;13.77;55.28;100736.97;5058731;28;20025;-62
2021/10/04 02:35:38;;;;;;;17.42;6.95;;;;;;;13.72;55.21;100737.41;5058377;28;20025;-62
2021/10/04 02:38:04;;;;;;;14.35;6.90;;;;;;;13.68;55.83;100733.78;5058669;28;20451;-62
2021/10/04 02:40:30;;;;;;;11.68;6.80;;;;;;;13.63;55.72;100735.03;5058621;28;20083;-62
2021/10/04 02:42:56;;;;;;;15.93;6.70;;;;;;;13.62;55.99;100733.44;5058508;28;20294;-62
2021/10/04 02:45:23;;;;;;;10.20;6.45;;;;;;;13.64;55.43;100733.03;5058143;28;20028;-62
2021/10/04 02:47:50;;;;;;;17.65;7.35;;;;;;;13.57;55.81;100739.53;5044464;28;20013;-62
2021/10/04 02:50:18;;;;;;;14.43;7.50;;;;;;;13.54;56.58;100743.19;5058148;28;20056;-61
2021/10/04 02:52:43;;;;;;;14.48;7.57;;;;;;;13.53;55.77;100750.88;5057957;28;20311;-62
2021/10/04 02:55:09;;;;;;;13.45;6.93;;;;;;;13.54;56.83;100743.19;5058219;28;20025;-62
2021/10/04 02:57:34;;;;;;;10.75;7.10;;;;;;;13.47;56.90;100743.25;5058180;28;20017;-62
2021/10/04 03:00:00;;;;;;;15.70;7.63;;;;;;;13.39;56.63;100733.19;5056454;28;20032;-62
2021/10/04 03:02:26;;;;;;;16.65;7.75;;;;;;;13.36;57.23;100734.03;5057889;28;20039;-62
2021/10/04 03:04:51;;;;;;;15.32;7.07;;;;;;;13.30;57.34;100734.47;5058183;28;20052;-62
2021/10/04 03:07:17;;;;;;;16.23;7.53;;;;;;;13.27;57.35;100732.47;5057845;28;20297;-62
2021/10/04 03:09:42;;;;;;;12.30;7.05;;;;;;;13.27;57.13;100729.66;5057808;28;20434;-62
2021/10/04 03:12:08;;;;;;;10.55;7.43;;;;;;;13.25;57.22;100729.28;5057939;28;20025;-62
2021/10/04 03:14:34;;;;;;;17.67;7.45;;;;;;;13.26;57.24;100738.53;5057469;28;20036;-62
2021/10/04 03:17:00;;;;;;;16.45;8.07;;;;;;;13.26;56.90;100733.69;5057967;28;20025;-62
2021/10/04 03:19:26;;;;;;;10.82;7.55;;;;;;;13.22;57.06;100727.28;5056236;28;20021;-62
2021/10/04 03:21:51;;;;;;;11.27;7.53;;;;;;;13.22;57.63;100730.09;5057902;28;20029;-62
2021/10/04 03:24:16;;;;;;;23.45;8.00;;;;;;;13.20;57.58;100729.72;5057390;28;20028;-62
2021/10/04 03:26:42;;;;;;;14.90;7.63;;;;;;;13.17;57.77;100730.53;5057452;28;20032;-62
2021/10/04 03:29:09;;;;;;;13.57;8.43;;;;;;;13.16;57.98;100740.19;5057467;28;20025;-61
2021/10/04 03:31:35;;;;;;;17.52;8.27;;;;;;;13.10;58.18;100735.38;5057337;28;20340;-61
2021/10/04 03:34:01;;;;;;;20.95;8.05;;;;;;;13.07;58.00;100734.19;5057197;28;20021;-62
2021/10/04 03:36:26;;;;;;;14.38;8.10;;;;;;;13.10;57.93;100729.72;5057460;28;20078;-61
2021/10/04 03:38:53;;;;;;;11.50;7.30;;;;;;;13.08;57.57;100735.78;5049851;28;20026;-62
2021/10/04 03:41:18;;;;;;;13.65;7.80;;;;;;;13.06;57.80;100729.75;5057008;28;20036;-60
2021/10/04 03:43:44;;;;;;;14.52;8.55;;;;;;;13.05;57.73;100733.78;5056958;28;20033;-61
2021/10/04 03:46:09;;;;;;;14.48;7.85;;;;;;;13.02;58.07;100726.16;5056870;28;20040;-61
2021/10/04 03:48:35;;;;;;;14.85;8.60;;;;;;;12.97;58.03;100721.75;5057123;28;20175;-61
2021/10/04 03:51:00;;;;;;;16.65;7.90;;;;;;;12.90;58.39;100724.59;5056887;28;20438;-62
2021/10/04 03:53:25;;;;;;;12.55;7.90;;;;;;;12.86;58.27;100725.81;5057191;28;20408;-62
2021/10/04 03:55:51;;;;;;;13.50;8.25;;;;;;;12.86;58.90;100731.47;5055739;28;20022;-62
2021/10/04 03:58:16;;;;;;;16.80;9.02;;;;;;;12.88;58.83;100740.34;5056906;28;20017;-61
2021/10/04 04:00:42;;;;;;;14.65;8.57;;;;;;;12.87;58.91;100728.22;5056877;28;20389;-62
2021/10/04 04:03:07;;;;;;;14.73;8.80;;;;;;;12.87;58.62;100727.41;5056671;28;20430;-62
2021/10/04 04:05:33;;;;;;;11.70;8.30;;;;;;;12.85;58.86;100727.84;5056830;28;20035;-62
2021/10/04 04:07:58;;;;;;;16.08;8.88;;;;;;;12.81;58.73;100712.94;5056893;28;20025;-61
2021/10/04 04:10:23;;;;;;;13.93;8.77;;;;;;;12.78;58.87;100712.97;5052076;28;20137;-62
2021/10/04 04:12:49;;;;;;;14.05;8.50;;;;;;;12.75;58.54;100719.44;5054510;28;20032;-61
2021/10/04 04:15:16;;;;;;;14.02;8.45;;;;;;;12.73;58.98;100716.22;5056348;28;20319;-63
2021/10/04 04:17:41;;;;;;;18.98;8.98;;;;;;;12.71;59.01;100721.47;5056872;28;20515;-61
2021/10/04 04:20:08;;;;;;;15.38;8.48;;;;;;;12.66;59.38;100729.16;5056777;28;20021;-63
2021/10/04 04:22:34;;;;;;;18.33;8.65;;;;;;;12.66;59.58;100731.16;5056486;28;20024;-63
2021/10/04 04:25:00;;;;;;;14.85;8.32;;;;;;;12.68;59.28;100731.56;5056358;28;20035;-60
2021/10/04 04:27:26;;;;;;;16.73;9.63;;;;;;;12.78;59.79;100727.88;5056088;28;20108;-60
2021/10/04 04:29:52;;;;;;;13.15;8.65;;;;;;;12.81;59.53;100731.88;5056392;28;20112;-61
2021/10/04 04:32:18;;;;;;;18.55;9.05;;;;;;;12.86;58.84;100739.91;5056321;28;20466;-54
2021/10/04 04:34:43;;;;;;;14.32;8.20;;;;;;;12.90;59.01;100747.19;5050917;28;20024;-61
2021/10/04 04:37:09;;;;;;;15.52;9.30;;;;;;;12.90;58.83;100749.19;5050386;28;20503;-53
2021/10/04 04:39:35;;;;;;;16.17;9.18;;;;;;;12.90;59.04;100754.84;5056260;28;20043;-60
2021/10/04 04:42:02;;;;;;;16.02;9.10;;;;;;;12.87;58.80;100752.81;5055700;28;20037;-62
2021/10/04 04:44:27;;;;;;;11.93;8.20;;;;;;;12.85;58.84;100752.41;5055963;28;20013;-62
2021/10/04 04:46:53;;;;;;;13.90;8.55;;;;;;;12.76;59.29;100752.88;5055732;28;20025;-62
2021/10/04 04:49:18;;;;;;;18.48;8.38;;;;;;;12.68;59.30;100754.91;5054532;28;20063;-61
2021/10/04 04:51:44;;;;;;;14.60;9.07;;;;;;;12.66;59.75;100751.69;5056064;28;20095;-61
2021/10/04 04:54:09;;;;;;;14.27;8.93;;;;;;;12.67;59.11;100747.66;5055745;28;20028;-62
2021/10/04 04:56:35;;;;;;;17.33;9.27;;;;;;;12.66;59.60;100751.69;5054587;28;20021;-62
2021/10/04 04:59:00;;;;;;;14.52;8.70;;;;;;;12.62;60.15;100750.91;5054687;28;20024;-61
2021/10/04 05:01:26;;;;;;;18.58;8.55;;;;;;;12.59;59.78;100760.16;5052929;28;20025;-61
2021/10/04 05:03:51;;;;;;;19.58;8.93;;;;;;;12.61;60.22;100763.41;5038396;28;20017;-61
2021/10/04 05:06:17;;;;;;;19.55;8.88;;;;;;;12.63;59.96;100768.66;5047980;28;20037;-61
2021/10/04 05:08:43;;;;;;;15.07;8.27;;;;;;;12.64;59.63;100767.44;5050044;28;20072;-62
2021/10/04 05:11:08;;;;;;;17.02;8.02;;;;;;;12.65;59.68;100767.03;5054994;28;20424;-62
2021/10/04 05:13:34;;;;;;;16.42;9.77;;;;;;;12.70;59.48;100768.63;5053127;28;20020;-62
2021/10/04 05:15:59;;;;;;;21.30;9.50;;;;;;;12.67;59.65;100767.41;5055660;28;20024;-61
2021/10/04 05:18:24;;;;;;;15.05;8.63;;;;;;;12.68;60.25;100768.22;5055117;28;20031;-62
2021/10/04 05:20:50;;;;;;;18.90;8.60;;;;;;;12.71;59.74;100769.41;5055267;28;20017;-62
2021/10/04 05:23:15;;;;;;;13.23;8.35;;;;;;;12.74;59.42;100772.22;5055123;28;20076;-62
2021/10/04 05:25:40;;;;;;;12.18;8.50;;;;;;;12.72;59.38;100766.19;5055167;28;20131;-61
2021/10/04 05:28:06;;;;;;;20.02;9.93;;;;;;;12.76;59.72;100764.16;5055432;28;20389;-62
2021/10/04 05:30:33;;;;;;;13.48;8.60;;;;;;;12.82;59.37;100773.00;5055094;28;20013;-62
2021/10/04 05:32:59;;;;;;;15.35;9.75;;;;;;;12.81;59.93;100774.19;5055648;28;20016;-61
2021/10/04 05:35:24;;;;;;;16.20;8.38;;;;;;;12.86;59.39;100768.94;5055134;28;20036;-61
2021/10/04 05:37:50;;;;;;;21.15;9.77;;;;;;;12.93;59.40;100773.78;5055195;28;20025;-62
2021/10/04 05:40:15;;;;;;;27.73;12.93;;;;;;;12.94;58.83;100781.00;5055101;28;20021;-61
2021/10/04 05:42:42;;;;;;;30.13;14.43;;;;;;;12.96;59.58;100772.94;5054429;28;20294;-61
2021/10/04 05:45:09;;;;;;;14.63;9.02;;;;;;;13.03;58.74;100772.09;5055206;28;20025;-62
2021/10/04 05:47:35;;;;;;;18.95;9.13;;;;;;;13.08;58.59;100766.81;5055047;28;20110;-62
2021/10/04 05:50:01;;;;;;;16.25;8.55;;;;;;;13.11;58.95;100768.81;5055185;28;20083;-62
2021/10/04 05:52:26;;;;;;;13.88;8.65;;;;;;;13.17;58.30;100758.75;5054895;28;20045;-61
2021/10/04 05:54:51;;;;;;;12.77;8.00;;;;;;;13.25;57.81;100768.00;5055081;28;20098;-55
2021/10/04 05:57:17;;;;;;;11.98;8.40;;;;;;;13.30;58.54;100773.19;5055182;28;20025;-62
2021/10/04 05:59:42;;;;;;;16.63;8.48;;;;;;;13.38;58.54;100773.94;5055086;28;20036;-62
2021/10/04 06:02:08;;;;;;;12.57;7.80;;;;;;;13.47;57.48;100772.28;5054903;28;20021;-62
2021/10/04 06:04:33;;;;;;;10.45;7.40;;;;;;;13.57;57.48;100781.91;5054989;28;20024;-62
2021/10/04 06:06:58;;;;;;;15.65;8.55;;;;;;;13.67;57.59;100774.56;5054958;28;20029;-62
2021/10/04 06:09:24;;;;;;;13.27;6.70;;;;;;;13.80;57.28;100776.50;5054595;28;20108;-62
2021/10/04 06:11:49;;;;;;;13.93;7.97;;;;;;;13.87;57.00;100792.56;5055189;28;20079;-62
2021/10/04 06:14:14;;;;;;;17.67;7.90;;;;;;;13.99;56.29;100791.28;5037503;28;20083;-61
2021/10/04 06:16:40;;;;;;;10.00;6.55;;;;;;;14.06;56.65;100780.72;5054737;28;20070;-62
2021/10/04 06:19:05;;;;;;;17.20;8.07;;;;;;;14.18;56.58;100785.03;5055042;28;20036;-62
2021/10/04 06:21:31;;;;;;;19.25;8.07;;;;;;;14.30;56.00;100790.19;5054746;28;20142;-62
2021/10/04 06:23:56;;;;;;;12.88;7.55;;;;;;;14.40;55.73;100788.47;5054752;28;20025;-62
2021/10/04 06:26:22;;;;;;;14.48;7.15;;;;;;;14.50;54.97;100788.38;5054843;28;20107;-62
2021/10/04 06:28:47;;;;;;;14.75;7.18;;;;;;;14.59;54.77;100789.94;5054962;28;20029;-62
2021/10/04 06:31:13;;;;;;;12.05;7.20;;;;;;;14.72;54.91;100793.81;5054767;28;20025;-61
2021/10/04 06:33:38;;;;;;;18.60;7.43;;;;;;;14.85;54.23;100792.06;5054680;28;20064;-62
2021/10/04 06:36:04;;;;;;;11.80;7.35;;;;;;;14.95;54.21;100799.59;5054870;28;20021;-54
2021/10/04 06:38:29;;;;;;;14.90;6.68;;;;;;;15.06;53.97;100793.81;5054569;28;20074;-62
2021/10/04 06:40:55;;;;;;;15.40;7.50;;;;;;;15.12;53.68;100790.09;5054568;28;20025;-62
2021/10/04 06:43:20;;;;;;;11.50;6.90;;;;;;;15.23;53.52;100791.97;5054731;28;20316;-61
2021/10/04 06:45:46;;;;;;;12.13;6.85;;;;;;;15.29;53.18;100799.56;5054700;28;20025;-62
2021/10/04 06:48:11;;;;;;;14.75;7.30;;;;;;;15.41;52.91;100801.03;5054519;28;20021;-62
2021/10/04 06:50:36;;;;;;;14.70;8.20;;;;;;;15.53;52.93;100800.44;5054570;28;20083;-62
2021/10/04 06:53:02;;;;;;;10.48;6.22;;;;;;;15.63;52.60;100808.03;5037674;28;20143;-62
2021/10/04 06:55:27;;;;;;;15.60;7.03;;;;;;;15.72;52.52;100810.34;5058336;28;20082;-62
2021/10/04 06:57:53;;;;;;;15.43;6.75;;;;;;;15.83;52.10;100801.66;5057968;28;20404;-62
2021/10/04 07:00:21;;;;;;;13.45;6.53;;;;;;;15.88;51.99;100813.31;5058430;28;20075;-61
2021/10/04 07:02:49;;;;;;;14.93;7.05;;;;;;;15.98;52.56;100811.53;5058133;28;20031;-62
2021/10/04 07:05:15;;;;;;;14.10;6.90;;;;;;;16.07;51.58;100811.78;5058141;28;20047;-62
2021/10/04 07:07:41;;;;;;;9.65;6.38;;;;;;;16.17;51.60;100813.66;5057705;28;20103;-62
2021/10/04 07:10:06;;;;;;;12.73;6.50;;;;;;;16.25;51.03;100812.31;5040337;28;20111;-62
2021/10/04 07:12:32;;;;;;;10.57;6.35;;;;;;;16.38;51.03;100812.47;5057863;28;20033;-62
2021/10/04 07:14:57;;;;;;;9.32;6.15;;;;;;;16.54;51.42;100814.63;5057841;28;20060;-62
2021/10/04 07:17:22;;;;;;;12.77;6.57;;;;;;;16.59;50.38;100819.78;5057801;28;20083;-62
2021/10/04 07:19:48;;;;;;;12.90;6.15;;;;;;;16.67;51.19;100824.13;5057623;28;20379;-62
2021/10/04 07:22:14;;;;;;;15.93;6.53;;;;;;;16.79;50.40;100819.88;5057457;28;20483;-61
2021/10/04 07:24:39;;;;;;;9.90;5.90;;;;;;;16.90;50.56;100821.25;5057742;28;20021;-62
2021/10/04 07:27:05;;;;;;;14.80;6.57;;;;;;;17.04;50.27;100822.22;5057467;28;20427;-62
2021/10/04 07:29:32;;;;;;;8.75;6.40;;;;;;;17.21;50.24;100826.69;5057463;28;20086;-62
2021/10/04 07:31:57;;;;;;;13.40;7.22;;;;;;;17.32;49.38;100827.28;5057440;28;20025;-62
2021/10/04 07:34:23;;;;;;;11.90;6.13;;;;;;;17.39;50.03;100824.28;5057363;28;20032;-62
2021/10/04 07:36:48;;;;;;;15.82;6.18;;;;;;;17.50;49.67;100824.03;5057301;28;20427;-62
2021/10/04 07:39:15;;;;;;;12.18;6.25;;;;;;;17.65;49.62;100822.50;5057037;28;20055;-62
2021/10/04 07:41:41;;;;;;;12.18;6.13;;;;;;;17.83;49.24;100827.81;5057053;28;20036;-62
2021/10/04 07:44:06;;;;;;;12.40;6.43;;;;;;;17.94;48.77;100816.97;5057139;28;20021;-61
2021/10/04 07:46:32;;;;;;;10.38;5.75;;;;;;;18.01;48.42;100818.84;5057011;28;20029;-62
2021/10/04 07:48:57;;;;;;;11.82;6.20;;;;;;;18.09;49.00;100818.22;5056741;28;20037;-61
2021/10/04 07:51:22;;;;;;;12.70;6.30;;;;;;;18.24;48.90;100821.50;5039458;28;20021;-61
2021/10/04 07:53:48;;;;;;;13.30;5.75;;;;;;;18.38;48.79;100823.19;5057346;28;20635;-62
2021/10/04 07:56:14;;;;;;;9.93;6.07;;;;;;;18.48;48.17;100822.09;5057017;28;20021;-61
2021/10/04 07:58:39;;;;;;;9.55;5.30;;;;;;;18.52;48.13;100823.59;5057206;28;20035;-61
2021/10/04 08:01:05;;;;;;;16.63;6.05;;;;;;;18.58;47.91;100823.06;5056813;28;20017;-62
2021/10/04 08:03:30;;;;;;;12.88;5.53;;;;;;;18.64;48.43;100822.13;5038945;28;20301;-62
2021/10/04 08:05:55;;;;;;;11.15;5.47;;;;;;;18.77;48.18;100822.97;5056156;28;20024;-62
2021/10/04 08:08:21;;;;;;;11.55;5.78;;;;;;;18.93;48.05;100827.81;5056606;28;20028;-62
2021/10/04 08:10:46;;;;;;;10.07;5.60;;;;;;;19.02;47.47;100822.28;5056940;28;20032;-62
2021/10/04 08:13:11;;;;;;;13.40;5.70;;;;;;;19.10;46.88;100817.16;5056819;28;20308;-62
2021/10/04 08:15:38;;;;;;;12.65;6.32;;;;;;;19.13;47.01;100819.09;5056699;28;20496;-62
2021/10/04 08:18:04;;;;;;;8.65;5.40;;;;;;;19.14;46.79;100820.69;5056517;28;20419;-62
2021/10/04 08:20:30;;;;;;;11.07;5.40;;;;;;;19.12;46.92;100818.31;5056633;28;20025;-61
2021/10/04 08:22:56;;;;;;;8.27;5.30;;;;;;;19.14;46.85;100821.50;5056563;28;20078;-61
2021/10/04 08:25:21;;;;;;;6.78;5.80;;;;;;;19.15;46.88;100819.44;5056369;28;20326;-61
2021/10/04 08:27:47;;;;;;;16.30;5.95;;;;;;;19.15;46.55;100817.41;5056602;28;20410;-61
2021/10/04 08:30:13;;;;;;;26.95;6.85;;;;;;;19.19;47.27;100820.16;5056446;28;20033;-61
2021/10/04 08:32:38;;;;;;;12.05;6.10;;;;;;;19.21;47.55;100820.50;5055946;28;20029;-61
2021/10/04 08:35:05;;;;;;;13.02;5.63;;;;;;;19.28;47.88;100808.91;5056518;28;20021;-61
2021/10/04 08:37:32;;;;;;;10.43;5.85;;;;;;;19.41;47.19;100809.69;5056312;28;20423;-61
2021/10/04 08:40:03;;;;;;;8.48;5.45;;;;;;;19.55;47.10;100811.34;5056281;28;20093;-62
2021/10/04 08:42:30;;;;;;;18.03;5.53;;;;;;;19.62;46.61;100804.63;5056024;28;20028;-60
2021/10/04 08:44:56;;;;;;;12.07;5.55;;;;;;;19.63;47.25;100798.47;5056274;28;20078;-61
2021/10/04 08:47:22;;;;;;;13.35;6.45;;;;;;;19.67;46.70;100812.59;5055793;28;20021;-61
2021/10/04 08:49:48;;;;;;;13.52;5.30;;;;;;;19.67;47.67;100796.31;5056070;28;20068;-61
2021/10/04 08:52:14;;;;;;;12.25;6.28;;;;;;;19.75;47.09;100796.88;5056000;28;20039;-61
2021/10/04 08:54:42;;;;;;;10.85;5.35;;;;;;;19.82;48.27;100790.94;5055880;28;20316;-61
2021/10/04 08:57:08;;;;;;;12.73;6.00;;;;;;;19.89;47.18;100795.63;5056287;28;20158;-61
2021/10/04 08:59:33;;;;;;;10.93;5.40;;;;;;;19.97;47.18;100792.06;5055678;28;20044;-61
2021/10/04 09:02:23;;;;;;;13.30;5.68;;;;;;;20.04;47.19;100796.75;5055636;28;20024;-61
2021/10/04 09:05:08;;;;;;;7.22;5.57;;;;;;;20.00;47.44;100802.59;5041701;28;20029;-57
2021/10/04 09:07:42;;;;;;;12.73;5.60;;;;;;;20.02;46.55;100799.28;5055526;28;20297;-61
2021/10/04 09:10:10;;;;;;;15.55;6.22;;;;;;;20.02;47.03;100788.66;5055872;28;20048;-61
2021/10/04 09:12:48;;;;;;;7.53;5.38;;;;;;;20.04;47.62;100794.69;5055589;28;20036;-61
2021/10/04 09:15:38;;;;;;;13.25;5.57;;;;;;;20.11;46.97;100793.66;5055698;28;20426;-61
2021/10/04 09:18:19;;;;;;;12.43;6.03;;;;;;;20.18;46.88;100795.47;5055321;28;20428;-61
2021/10/04 09:20:55;;;;;;;12.77;5.85;;;;;;;20.25;47.18;100793.16;5055718;28;20033;-61
2021/10/04 09:23:31;;;;;;;16.65;6.95;;;;;;;20.28;47.47;100791.47;5037618;28;20036;-60
2021/10/04 09:25:57;;;;;;;15.13;7.28;;;;;;;20.30;47.32;100794.66;5055505;28;20151;-61
2021/10/04 09:28:43;;;;;;;11.30;6.22;;;;;;;20.28;47.27;100788.63;5055148;28;20358;-60
2021/10/04 09:31:17;;;;;;;15.23;5.90;;;;;;;20.36;47.60;100792.81;5044298;28;20305;-59
2021/10/04 09:34:07;;;;;;;15.88;6.00;;;;;;;20.42;47.11;100785.28;5055103;28;20024;-61
2021/10/04 09:36:38;;;;;;;10.77;5.53;;;;;;;20.49;47.70;100785.03;5055180;28;20024;-60
2021/10/04 09:39:27;;;;;;;9.98;6.20;;;;;;;20.59;47.56;100785.91;5055197;28;20056;-61
2021/10/04 09:42:04;;;;;;;11.30;5.70;;;;;;;20.70;46.87;100792.03;5055230;28;20112;-61
2021/10/04 09:44:47;;;;;;;11.20;5.47;;;;;;;20.73;47.04;100787.44;5021121;28;20384;-61
2021/10/04 09:47:20;;;;;;;17.38;5.72;;;;;;;20.75;46.94;100793.50;5049735;28;20412;-61
2021/10/04 09:49:50;;;;;;;12.50;6.45;;;;;;;20.82;47.66;100790.41;5058491;28;20048;-61
2021/10/04 09:52:16;;;;;;;10.27;6.00;;;;;;;20.88;47.02;100783.63;5055361;28;20048;-61
2021/10/04 09:54:47;;;;;;;9.00;6.28;;;;;;;20.90;46.91;100778.25;5055083;28;20406;-61
2021/10/04 09:57:20;;;;;;;12.93;5.80;;;;;;;20.97;46.81;100783.69;5060171;28;20150;-61
2021/10/04 09:59:46;;;;;;;13.32;5.63;;;;;;;21.03;47.31;100777.34;5041291;28;20043;-62
2021/10/04 10:02:18;;;;;;;9.43;5.80;;;;;;;21.07;46.70;100780.88;5055229;28;20036;-61
2021/10/04 10:04:46;;;;;;;12.45;6.00;;;;;;;21.14;46.83;100775.72;5055026;28;20531;-61
2021/10/04 10:07:12;;;;;;;9.45;6.18;;;;;;;21.15;46.83;100785.88;5053758;28;20328;-61
2021/10/04 10:09:39;;;;;;;11.13;6.32;;;;;;;21.15;46.49;100774.44;5049762;28;20033;-61
2021/10/04 10:12:05;;;;;;;16.02;6.97;;;;;;;21.19;46.38;100775.09;5055062;28;20021;-61
2021/10/04 10:14:43;;;;;;;18.00;6.75;;;;;;;21.26;46.34;100777.72;5036971;28;20033;-61
2021/10/04 10:17:22;;;;;;;14.90;6.40;;;;;;;21.32;46.84;100763.59;5054948;28;20104;-61
2021/10/04 10:19:49;;;;;;;12.10;5.93;;;;;;;21.39;46.41;100769.06;5056555;28;20074;-61
2021/10/04 10:22:17;;;;;;;8.68;5.72;;;;;;;21.42;45.97;100761.59;5037090;28;20123;-62
2021/10/04 10:24:44;;;;;;;15.10;5.90;;;;;;;21.55;46.38;100756.56;5055176;28;20028;-62
2021/10/04 10:27:10;;;;;;;9.68;5.47;;;;;;;21.60;46.37;100758.81;5054667;28;20321;-61
2021/10/04 10:29:36;;;;;;;10.85;6.03;;;;;;;21.70;46.57;100756.81;5058483;28;20032;-61
2021/10/04 10:32:01;;;;;;;21.48;5.90;;;;;;;21.74;46.40;100758.25;5069738;28;20033;-62
2021/10/04 10:34:29;;;;;;;9.07;5.80;;;;;;;21.80;45.71;100752.69;5059622;28;20056;-59
2021/10/04 10:37:03;;;;;;;8.50;5.28;;;;;;;21.92;45.50;100760.38;5058620;28;20439;-61
2021/10/04 10:39:34;;;;;;;9.15;6.05;;;;;;;21.89;45.46;100755.56;5068444;28;20021;-62
2021/10/04 10:42:14;;;;;;;10.38;5.65;;;;;;;21.90;45.61;100746.50;5058508;28;20411;-61
2021/10/04 10:44:58;;;;;;;10.52;5.65;;;;;;;21.95;46.00;100752.91;5056585;28;20442;-61
2021/10/04 10:47:33;;;;;;;14.27;6.15;;;;;;;22.04;46.23;100748.03;5058222;28;20100;-62
2021/10/04 10:49:59;;;;;;;16.45;5.60;;;;;;;22.14;46.34;100748.81;5044593;28;20060;-61
2021/10/04 10:52:27;;;;;;;11.50;5.95;;;;;;;22.17;45.52;100742.94;5058154;28;20320;-62
2021/10/04 10:54:53;;;;;;;10.40;6.35;;;;;;;22.22;45.97;100743.63;5058289;28;20028;-62
2021/10/04 10:57:23;;;;;;;10.82;5.47;;;;;;;22.25;45.82;100743.47;5058269;28;20025;-61
2021/10/04 11:00:29;;;;;;;11.30;5.80;;;;;;;22.33;45.12;100738.22;5057752;28;20031;-61
2021/10/04 11:03:15;;;;;;;11.52;5.70;;;;;;;22.33;45.70;100739.00;4948121;28;20034;-62
2021/10/04 11:05:43;;;;;;;18.38;5.40;;;;;;;22.38;44.99;100735.50;4942085;29;20042;-61
2021/10/04 11:08:12;;;;;;;15.27;5.50;;;;;;;22.40;45.69;100732.94;5010289;28;20404;-61
2021/10/04 11:10:49;;;;;;;12.30;5.60;;;;;;;22.47;45.60;100735.53;5058066;28;20039;-61
2021/10/04 11:13:20;;;;;;;9.32;4.93;;;;;;;22.61;45.70;100741.88;5057586;28;20021;-62
2021/10/04 11:15:46;;;;;;;11.20;5.60;;;;;;;22.68;45.75;100727.22;5057883;28;20036;-62